Time;durP1;ratioP1;P1;durP2;ratioP2;P2;SDS_P1;SDS_P2;PMS_P1;PMS_P2;Temp;Humidity;BMP_temperature;BMP_pressure;BME280_temperature;BME280_humidity;BME280_pressure;Samples;Min_cycle;Max_cycle;Signal;HPM_P1;HPM_P2
2023/04/30 00:00:20;;;;;;;0.20;0.20;;;;;;;16.12;99.89;99915.47;5035312;28;20029;-68
2023/04/30 00:02:46;;;;;;;0.20;0.20;;;;;;;16.07;100.00;99901.06;5053145;28;20021;-69
2023/04/30 00:05:16;;;;;;;0.20;0.20;;;;;;;16.14;100.00;99901.84;5019271;28;20041;-70
2023/04/30 00:07:42;;;;;;;0.20;0.20;;;;;;;16.10;100.00;99900.25;5035214;28;20033;-69
2023/04/30 00:10:13;;;;;;;0.30;0.30;;;;;;;16.11;99.70;99885.81;5035305;28;20036;-70
2023/04/30 00:12:41;;;;;;;0.20;0.20;;;;;;;16.06;99.31;99877.03;5035730;28;20028;-68
2023/04/30 00:15:09;;;;;;;0.20;0.20;;;;;;;16.01;99.01;99864.22;5035152;28;20033;-69
2023/04/30 00:17:35;;;;;;;0.20;0.20;;;;;;;16.10;98.15;99872.19;5035167;28;20124;-69
2023/04/30 00:20:03;;;;;;;0.20;0.20;;;;;;;16.00;99.01;99864.63;5035510;28;20095;-69
2023/04/30 00:22:34;;;;;;;0.20;0.20;;;;;;;15.94;99.53;99864.25;5035210;28;20044;-69
2023/04/30 00:25:01;;;;;;;0.20;0.20;;;;;;;15.93;99.63;99868.25;5035056;28;20025;-70
2023/04/30 00:27:27;;;;;;;0.20;0.20;;;;;;;15.88;100.00;99855.44;5035086;28;20110;-70
2023/04/30 00:29:53;;;;;;;0.20;0.20;;;;;;;15.84;99.88;99860.28;5035013;28;20060;-68
2023/04/30 00:32:26;;;;;;;0.20;0.20;;;;;;;15.86;99.35;99854.25;5035095;28;20025;-68
2023/04/30 00:34:54;;;;;;;0.20;0.20;;;;;;;15.78;100.00;99849.88;5035542;28;20068;-67
2023/04/30 00:37:20;;;;;;;0.20;0.20;;;;;;;15.82;99.66;99833.81;5035035;28;20036;-68
2023/04/30 00:39:50;;;;;;;0.20;0.20;;;;;;;15.96;98.66;99842.19;5035564;28;20036;-68
2023/04/30 00:42:17;;;;;;;0.20;0.20;;;;;;;15.86;98.79;99840.22;5035750;28;20119;-68
2023/04/30 00:44:43;;;;;;;0.20;0.20;;;;;;;15.79;99.01;99843.84;5038426;28;20040;-68
2023/04/30 00:47:11;;;;;;;0.20;0.20;;;;;;;15.69;99.66;99834.28;5038979;28;20033;-67
2023/04/30 00:49:36;;;;;;;0.20;0.20;;;;;;;15.70;99.03;99849.09;5038702;28;20025;-67
2023/04/30 00:52:04;;;;;;;0.20;0.20;;;;;;;15.66;98.67;99843.50;5038946;28;20116;-68
2023/04/30 00:54:30;;;;;;;0.20;0.20;;;;;;;15.64;98.39;99839.50;5037879;28;20053;-67
2023/04/30 00:56:58;;;;;;;0.20;0.20;;;;;;;15.60;98.18;99844.28;5038328;28;20140;-67
2023/04/30 00:59:29;;;;;;;0.20;0.20;;;;;;;15.55;97.26;99839.88;5038209;28;20063;-67
2023/04/30 01:01:55;;;;;;;0.20;0.20;;;;;;;15.47;98.75;99841.13;5038172;28;20021;-68
2023/04/30 01:04:25;;;;;;;0.20;0.20;;;;;;;15.41;98.81;99842.75;5038077;28;20082;-69
2023/04/30 01:06:54;;;;;;;0.20;0.20;;;;;;;15.38;98.59;99843.53;5056053;28;20051;-68
2023/04/30 01:09:23;;;;;;;0.20;0.20;;;;;;;15.33;99.57;99843.94;5038368;28;20103;-68
2023/04/30 01:12:06;;;;;;;0.20;0.20;;;;;;;15.21;99.50;99833.97;5038581;28;20029;-66
2023/04/30 01:14:44;;;;;;;0.20;0.20;;;;;;;14.91;99.57;99795.16;5038552;28;20033;-69
2023/04/30 01:17:30;;;;;;;0.20;0.20;;;;;;;15.17;99.96;99838.75;5038461;28;20029;-69
2023/04/30 01:20:00;;;;;;;0.20;0.20;;;;;;;15.12;100.00;99848.38;5037945;28;20039;-68
2023/04/30 01:22:31;;;;;;;0.20;0.20;;;;;;;15.12;100.00;99839.16;5056292;28;20025;-69
2023/04/30 01:25:14;;;;;;;0.20;0.20;;;;;;;15.09;100.00;99831.59;5037713;28;20029;-67
2023/04/30 01:27:59;;;;;;;;;;;;;;;15.10;100.00;99828.38;5038176;28;20039;-68
2023/04/30 01:30:29;;;;;;;0.20;0.20;;;;;;;15.21;100.00;99828.34;5037723;28;19958;-69
2023/04/30 01:32:58;;;;;;;0.20;0.20;;;;;;;15.37;99.44;99830.72;5037715;28;20036;-69
2023/04/30 01:35:41;;;;;;;0.20;0.20;;;;;;;15.31;99.90;99818.34;5037525;28;20025;-69
2023/04/30 01:38:15;;;;;;;0.20;0.20;;;;;;;15.24;100.00;99816.34;5037610;28;20041;-69
2023/04/30 01:40:47;;;;;;;;;;;;;;;15.24;100.00;99816.34;5037929;28;20039;-69
2023/04/30 01:43:53;;;;;;;0.20;0.20;;;;;;;15.31;100.00;99821.94;5038029;28;19908;-69
2023/04/30 01:46:26;;;;;;;0.20;0.20;;;;;;;15.22;100.00;99823.56;4990992;28;20476;-68
2023/04/30 01:49:13;;;;;;;0.20;0.20;;;;;;;15.24;100.00;99835.19;5037368;28;20036;-70
2023/04/30 01:51:41;;;;;;;0.20;0.20;;;;;;;15.22;100.00;99826.34;5037265;28;20036;-69
2023/04/30 01:54:37;;;;;;;0.20;0.20;;;;;;;15.18;100.00;99834.78;5036349;28;20049;-69
2023/04/30 01:57:07;;;;;;;0.20;0.20;;;;;;;15.13;100.00;99832.38;5035683;28;20047;-70
2023/04/30 01:59:38;;;;;;;0.20;0.20;;;;;;;15.13;100.00;99844.41;5037916;28;20487;-67
2023/04/30 02:02:06;;;;;;;0.20;0.20;;;;;;;15.24;100.00;99835.19;5037605;28;20031;-69
2023/04/30 02:04:32;;;;;;;0.20;0.20;;;;;;;15.18;100.00;99838.38;5037514;28;20029;-71
2023/04/30 02:06:58;;;;;;;0.20;0.20;;;;;;;15.10;100.00;99836.78;5036985;28;20506;-69
2023/04/30 02:09:26;;;;;;;0.20;0.20;;;;;;;15.17;100.00;99838.75;5037177;28;20032;-69
2023/04/30 02:11:56;;;;;;;0.20;0.20;;;;;;;15.14;100.00;99840.38;5037197;28;20060;-68
2023/04/30 02:14:27;;;;;;;0.20;0.20;;;;;;;15.19;100.00;99842.78;5036773;28;20053;-69
2023/04/30 02:16:55;;;;;;;0.20;0.20;;;;;;;15.17;99.43;99835.97;5037069;28;20083;-69
2023/04/30 02:19:30;;;;;;;0.20;0.20;;;;;;;15.19;100.00;99839.19;5037364;28;20036;-69
2023/04/30 02:21:58;;;;;;;0.20;0.20;;;;;;;15.20;100.00;99844.38;5037012;28;20028;-69
2023/04/30 02:24:26;;;;;;;0.20;0.20;;;;;;;15.22;100.00;99835.56;5037116;28;20103;-69
2023/04/30 02:26:52;;;;;;;0.20;0.20;;;;;;;15.22;99.98;99826.34;5037243;28;20120;-70
2023/04/30 02:29:17;;;;;;;0.20;0.20;;;;;;;15.24;99.66;99832.38;5036625;28;20502;-70
2023/04/30 02:31:45;;;;;;;0.20;0.20;;;;;;;15.23;99.98;99841.97;5036472;28;20025;-69
2023/04/30 02:34:11;;;;;;;0.20;0.20;;;;;;;15.18;99.86;99835.59;5036515;28;20025;-70
2023/04/30 02:36:39;;;;;;;0.20;0.20;;;;;;;15.20;99.72;99832.38;5054614;28;20100;-69
2023/04/30 02:39:05;;;;;;;0.20;0.20;;;;;;;15.09;98.84;99832.38;5036940;28;20067;-68
2023/04/30 02:41:33;;;;;;;0.20;0.20;;;;;;;15.14;99.00;99828.38;5036723;28;20556;-70
2023/04/30 02:44:02;;;;;;;0.20;0.20;;;;;;;15.14;98.50;99823.56;5036548;28;20166;-68
2023/04/30 02:46:30;;;;;;;0.20;0.20;;;;;;;15.19;97.90;99819.56;5036627;28;20024;-70
2023/04/30 02:48:58;;;;;;;0.20;0.20;;;;;;;15.13;97.93;99821.97;5036786;28;20471;-70
2023/04/30 02:51:23;;;;;;;0.20;0.20;;;;;;;15.15;98.19;99819.56;5036513;28;20033;-70
2023/04/30 02:53:51;;;;;;;0.20;0.20;;;;;;;15.18;97.89;99815.97;5035788;28;20511;-69
2023/04/30 02:56:20;;;;;;;0.20;0.20;;;;;;;15.17;97.30;99816.34;5054216;28;20025;-68
2023/04/30 02:58:50;;;;;;;0.20;0.20;;;;;;;15.16;97.13;99815.56;5037115;28;20135;-70
2023/04/30 03:01:21;;;;;;;0.20;0.20;;;;;;;15.13;97.86;99810.78;5036263;28;20025;-70
2023/04/30 03:03:46;;;;;;;0.20;0.20;;;;;;;15.07;98.03;99801.16;5036451;28;20032;-68
2023/04/30 03:06:14;;;;;;;0.20;0.20;;;;;;;15.13;97.91;99810.78;5036055;28;20025;-70
2023/04/30 03:08:42;;;;;;;0.20;0.20;;;;;;;15.11;97.94;99807.56;5036474;28;20040;-70
2023/04/30 03:11:09;;;;;;;0.20;0.20;;;;;;;15.11;98.36;99813.16;5035928;28;20532;-69
2023/04/30 03:13:37;;;;;;;0.20;0.20;;;;;;;15.05;98.61;99802.75;5035831;28;20025;-69
2023/04/30 03:16:06;;;;;;;0.20;0.20;;;;;;;15.05;99.09;99806.38;5035790;28;20021;-70
2023/04/30 03:18:35;;;;;;;0.20;0.20;;;;;;;15.07;98.95;99798.34;5035798;28;20132;-70
2023/04/30 03:21:05;;;;;;;0.20;0.20;;;;;;;15.05;99.36;99792.34;5035771;28;20108;-68
2023/04/30 03:23:33;;;;;;;0.20;0.20;;;;;;;15.05;99.28;99791.56;5035713;28;20028;-68
2023/04/30 03:26:01;;;;;;;0.20;0.20;;;;;;;15.04;98.63;99790.75;5036421;28;20376;-69
2023/04/30 03:28:34;;;;;;;0.20;0.20;;;;;;;14.92;97.72;99765.97;5035677;28;20559;-70
2023/04/30 03:31:05;;;;;;;0.20;0.20;;;;;;;15.09;97.81;99793.16;5036182;28;20021;-69
2023/04/30 03:33:33;;;;;;;0.20;0.20;;;;;;;15.00;98.30;99789.97;5053503;28;20036;-69
2023/04/30 03:36:01;;;;;;;0.20;0.20;;;;;;;14.97;99.11;99789.97;5035885;28;20051;-67
2023/04/30 03:38:27;;;;;;;0.20;0.20;;;;;;;14.89;99.31;99795.56;5036281;28;20033;-69
2023/04/30 03:40:55;;;;;;;0.20;0.20;;;;;;;14.90;100.00;99788.75;5035724;28;20033;-70
2023/04/30 03:43:23;;;;;;;0.20;0.20;;;;;;;14.90;99.37;99790.78;5035791;28;20122;-69
2023/04/30 03:45:51;;;;;;;0.20;0.20;;;;;;;14.80;99.04;99783.97;5035652;28;20025;-68
2023/04/30 03:48:20;;;;;;;0.20;0.20;;;;;;;14.84;99.52;99783.97;5035473;28;20067;-69
2023/04/30 03:50:46;;;;;;;0.20;0.20;;;;;;;14.80;99.54;99783.19;5053307;28;20025;-69
2023/04/30 03:53:11;;;;;;;0.20;0.20;;;;;;;14.77;99.58;99772.78;5035025;28;20084;-69
2023/04/30 03:55:37;;;;;;;0.20;0.20;;;;;;;14.77;100.00;99781.19;5035354;28;20032;-69
2023/04/30 03:58:05;;;;;;;0.20;0.20;;;;;;;14.75;100.00;99775.19;5035932;28;20033;-68
2023/04/30 04:00:31;;;;;;;0.20;0.20;;;;;;;14.73;100.00;99775.59;5052996;28;20100;-69
2023/04/30 04:03:00;;;;;;;0.20;0.20;;;;;;;14.77;100.00;99782.00;5034949;28;20061;-68
2023/04/30 04:05:25;;;;;;;0.20;0.20;;;;;;;14.70;100.00;99769.97;5035499;28;20107;-70
2023/04/30 04:07:53;;;;;;;0.20;0.20;;;;;;;14.77;100.00;99775.59;5035311;28;20123;-68
2023/04/30 04:10:21;;;;;;;0.20;0.20;;;;;;;14.82;100.00;99775.97;5035139;28;20029;-69
2023/04/30 04:12:52;;;;;;;0.20;0.20;;;;;;;14.78;100.00;99774.38;5035319;28;20043;-68
2023/04/30 04:15:20;;;;;;;0.20;0.20;;;;;;;14.83;100.00;99777.56;5035213;28;20029;-68
2023/04/30 04:17:46;;;;;;;0.20;0.20;;;;;;;14.87;100.00;99781.19;5035998;28;20111;-70
2023/04/30 04:20:12;;;;;;;0.20;0.20;;;;;;;14.92;100.00;99777.97;5039082;28;20123;-69
2023/04/30 04:22:40;;;;;;;0.20;0.20;;;;;;;14.97;100.00;99773.16;5039593;28;20025;-69
2023/04/30 04:25:09;;;;;;;0.20;0.20;;;;;;;15.00;100.00;99770.34;5039133;28;20033;-70
2023/04/30 04:27:35;;;;;;;0.20;0.20;;;;;;;15.06;100.00;99773.53;5038914;28;20029;-68
2023/04/30 04:30:01;;;;;;;0.20;0.20;;;;;;;15.17;100.00;99775.09;5038840;28;20107;-68
2023/04/30 04:32:27;;;;;;;0.20;0.20;;;;;;;15.20;100.00;99770.72;5039308;28;20024;-68
2023/04/30 04:34:59;;;;;;;0.20;0.20;;;;;;;15.19;100.00;99769.91;5038777;28;20361;-68
2023/04/30 04:37:24;;;;;;;0.20;0.20;;;;;;;15.29;98.13;99775.91;5039196;28;20028;-69
2023/04/30 04:39:50;;;;;;;0.20;0.20;;;;;;;15.23;99.07;99775.50;5038961;28;20029;-68
2023/04/30 04:42:16;;;;;;;0.20;0.20;;;;;;;15.28;99.45;99777.09;5038534;28;20044;-70
2023/04/30 04:44:44;;;;;;;0.20;0.20;;;;;;;15.35;97.78;99775.09;5038435;28;20116;-69
2023/04/30 04:47:11;;;;;;;0.20;0.20;;;;;;;15.38;98.41;99771.44;5038461;28;20072;-68
2023/04/30 04:49:42;;;;;;;0.20;0.20;;;;;;;15.51;99.09;99769.03;5038784;28;20036;-70
2023/04/30 04:52:10;;;;;;;0.20;0.20;;;;;;;15.39;98.70;99739.44;5038730;28;20033;-70
2023/04/30 04:54:41;;;;;;;0.20;0.20;;;;;;;15.67;98.47;99766.59;5038670;28;20036;-67
2023/04/30 04:57:11;;;;;;;0.20;0.20;;;;;;;15.73;98.77;99754.94;5038369;28;20029;-68
2023/04/30 04:59:39;;;;;;;0.20;0.20;;;;;;;15.83;98.58;99762.50;5038550;28;20372;-69
2023/04/30 05:02:07;;;;;;;0.20;0.20;;;;;;;16.01;98.33;99757.56;5038228;28;20126;-68
2023/04/30 05:04:35;;;;;;;0.20;0.20;;;;;;;16.18;97.39;99765.09;5038351;28;20028;-69
2023/04/30 05:07:03;;;;;;;0.20;0.20;;;;;;;16.23;96.59;99759.03;5038325;28;20047;-69
2023/04/30 05:09:28;;;;;;;0.20;0.20;;;;;;;16.31;95.57;99756.19;5038014;28;20062;-68
2023/04/30 05:11:56;;;;;;;0.20;0.20;;;;;;;16.40;96.32;99753.69;5038013;28;20041;-69
2023/04/30 05:14:25;;;;;;;0.20;0.20;;;;;;;16.50;94.79;99764.84;5037422;28;20025;-69
2023/04/30 05:16:50;;;;;;;0.20;0.20;;;;;;;16.60;94.79;99765.97;5038659;28;20498;-70
2023/04/30 05:19:16;;;;;;;0.20;0.20;;;;;;;16.89;92.62;99760.16;5055456;28;20100;-70
2023/04/30 05:21:44;;;;;;;0.20;0.20;;;;;;;16.87;91.32;99774.59;5035073;28;20041;-70
2023/04/30 05:24:15;;;;;;;0.20;0.20;;;;;;;16.96;90.88;99771.31;5033804;28;20040;-70
2023/04/30 05:26:40;;;;;;;0.20;0.20;;;;;;;16.94;90.03;99762.50;5034468;28;20033;-69
2023/04/30 05:29:11;;;;;;;0.20;0.20;;;;;;;16.99;88.23;99764.84;5033246;28;20486;-64
2023/04/30 05:31:39;;;;;;;0.20;0.20;;;;;;;16.99;88.38;99746.00;5036891;28;20519;-63
2023/04/30 05:34:26;;;;;;;0.20;0.20;;;;;;;16.96;85.38;99763.69;5054333;28;20068;-63
2023/04/30 05:36:58;;;;;;;0.20;0.20;;;;;;;17.01;85.78;99752.00;5037424;28;20037;-62
2023/04/30 05:39:26;;;;;;;0.20;0.20;;;;;;;17.12;85.10;99751.88;5037654;28;20545;-63
2023/04/30 05:41:51;;;;;;;0.20;0.20;;;;;;;17.18;84.79;99749.41;5037614;28;20052;-63
2023/04/30 05:44:19;;;;;;;0.20;0.20;;;;;;;17.21;85.10;99748.59;5037456;28;20395;-64
2023/04/30 05:46:47;;;;;;;0.20;0.20;;;;;;;17.21;84.08;99749.38;5037181;28;20060;-65
2023/04/30 05:49:13;;;;;;;0.20;0.20;;;;;;;17.37;82.86;99745.19;5037260;28;20033;-64
2023/04/30 05:51:38;;;;;;;0.20;0.20;;;;;;;17.45;81.60;99750.28;5037860;28;20380;-64
2023/04/30 05:54:07;;;;;;;0.20;0.20;;;;;;;17.45;80.28;99746.69;5036873;28;20118;-65
2023/04/30 05:56:32;;;;;;;0.20;0.20;;;;;;;17.53;80.52;99748.22;5036904;28;20025;-64
2023/04/30 05:59:02;;;;;;;0.20;0.20;;;;;;;17.40;79.91;99750.75;5037089;28;20151;-63
2023/04/30 06:01:33;;;;;;;0.20;0.20;;;;;;;17.52;80.49;99753.03;5037202;28;20029;-63
2023/04/30 06:04:00;;;;;;;0.20;0.20;;;;;;;17.60;79.48;99759.34;5037113;28;20055;-63
2023/04/30 06:06:26;;;;;;;0.20;0.20;;;;;;;17.40;78.56;99755.59;5036821;28;20537;-63
2023/04/30 06:08:52;;;;;;;0.20;0.20;;;;;;;17.47;79.18;99753.50;5037111;28;20045;-63
2023/04/30 06:11:24;;;;;;;0.20;0.20;;;;;;;17.46;78.54;99737.81;5036984;28;20040;-64
2023/04/30 06:13:54;;;;;;;;;;;;;;;17.56;78.52;99758.59;5054694;28;20029;-63
2023/04/30 06:16:20;;;;;;;0.20;0.20;;;;;;;17.58;78.57;99749.72;5037096;28;19943;-64
2023/04/30 06:18:49;;;;;;;0.20;0.20;;;;;;;17.78;77.70;99764.78;5037408;28;20063;-63
2023/04/30 06:21:17;;;;;;;0.20;0.20;;;;;;;18.05;77.19;99757.16;5036540;28;20119;-63
2023/04/30 06:23:47;;;;;;;0.20;0.20;;;;;;;18.20;75.42;99754.94;5036766;28;20539;-64
2023/04/30 06:26:16;;;;;;;0.20;0.20;;;;;;;18.21;73.48;99758.56;5036182;28;20063;-64
2023/04/30 06:28:43;;;;;;;0.20;0.20;;;;;;;18.43;73.71;99751.38;5033154;28;20522;-63
2023/04/30 06:31:09;;;;;;;0.20;0.20;;;;;;;18.54;71.81;99754.03;5033159;28;20067;-63
2023/04/30 06:33:34;;;;;;;0.20;0.20;;;;;;;18.73;69.42;99756.13;5036110;28;20060;-63
2023/04/30 06:36:03;;;;;;;0.20;0.20;;;;;;;18.89;70.25;99763.91;5037100;28;20479;-64
2023/04/30 06:38:30;;;;;;;0.20;0.20;;;;;;;18.88;69.46;99758.72;5036550;28;20098;-63
2023/04/30 06:40:56;;;;;;;0.20;0.20;;;;;;;18.73;68.95;99758.94;5035842;28;20060;-62
2023/04/30 06:43:24;;;;;;;0.20;0.20;;;;;;;18.73;70.01;99764.59;5036687;28;20063;-64
2023/04/30 06:45:49;;;;;;;0.20;0.20;;;;;;;18.86;69.18;99761.19;5036383;28;20029;-64
2023/04/30 06:48:15;;;;;;;0.20;0.20;;;;;;;18.90;68.45;99764.72;5036773;28;20025;-63
2023/04/30 06:50:43;;;;;;;0.20;0.20;;;;;;;19.15;68.55;99762.22;5036111;28;20387;-62
2023/04/30 06:53:15;;;;;;;0.20;0.20;;;;;;;19.26;68.38;99759.22;5053748;28;20512;-64
2023/04/30 06:55:47;;;;;;;0.20;0.20;;;;;;;19.55;67.80;99753.81;5035890;28;20171;-64
2023/04/30 06:58:12;;;;;;;0.20;0.20;;;;;;;20.00;65.61;99761.75;5036163;28;20112;-63
2023/04/30 07:00:38;;;;;;;0.20;0.20;;;;;;;20.49;63.70;99767.50;5035758;28;20167;-64
2023/04/30 07:03:03;;;;;;;0.20;0.20;;;;;;;20.88;59.98;99763.72;5036418;28;20064;-62
2023/04/30 07:05:30;;;;;;;0.20;0.20;;;;;;;21.15;59.23;99771.88;5035920;28;20502;-63
2023/04/30 07:07:56;;;;;;;0.10;0.10;;;;;;;21.00;59.56;99776.31;5036320;28;20033;-64
2023/04/30 07:10:25;;;;;;;0.20;0.20;;;;;;;21.23;58.44;99778.13;5035681;28;20032;-64
2023/04/30 07:12:50;;;;;;;0.20;0.20;;;;;;;20.78;59.26;99767.59;5035672;28;20115;-63
2023/04/30 07:15:19;;;;;;;0.20;0.20;;;;;;;21.27;58.90;99767.53;5035832;28;20179;-63
2023/04/30 07:17:53;;;;;;;0.20;0.20;;;;;;;20.30;60.10;99764.28;5053717;28;20028;-64
2023/04/30 07:20:19;;;;;;;0.20;0.20;;;;;;;20.34;61.29;99767.00;5035677;28;20074;-64
2023/04/30 07:22:46;;;;;;;0.20;0.20;;;;;;;20.41;61.64;99769.69;5036033;28;20033;-62
2023/04/30 07:25:13;;;;;;;0.20;0.20;;;;;;;20.40;62.13;99773.75;5035302;28;20036;-63
2023/04/30 07:27:44;;;;;;;0.10;0.10;;;;;;;20.40;62.61;99774.53;5035456;28;20042;-62
2023/04/30 07:30:09;;;;;;;0.20;0.20;;;;;;;20.34;61.94;99773.44;5053632;28;20025;-63
2023/04/30 07:32:41;;;;;;;0.20;0.20;;;;;;;20.80;61.30;99779.25;5053066;28;20043;-61
2023/04/30 07:35:09;;;;;;;0.20;0.20;;;;;;;20.54;60.70;99747.97;5036070;28;20112;-62
2023/04/30 07:37:37;;;;;;;0.13;0.13;;;;;;;20.95;60.33;99779.69;5035313;28;20033;-63
2023/04/30 07:40:03;;;;;;;0.10;0.10;;;;;;;21.20;59.19;99774.16;5035618;28;20083;-62
2023/04/30 07:42:34;;;;;;;0.20;0.20;;;;;;;21.08;58.90;99783.38;5035155;28;20487;-62
2023/04/30 07:45:02;;;;;;;0.20;0.20;;;;;;;21.11;58.35;99783.28;5035090;28;20082;-62
2023/04/30 07:47:32;;;;;;;0.20;0.20;;;;;;;21.05;57.59;99784.28;5035788;28;20392;-62
2023/04/30 07:50:00;;;;;;;0.20;0.20;;;;;;;21.15;58.45;99771.88;5053037;28;20375;-63
2023/04/30 07:52:26;;;;;;;0.20;0.20;;;;;;;21.52;57.68;99769.66;5035292;28;20033;-63
2023/04/30 07:54:53;;;;;;;0.20;0.20;;;;;;;22.48;52.71;99776.09;5039803;28;20148;-63
2023/04/30 07:57:21;;;;;;;0.20;0.20;;;;;;;21.95;55.13;99772.06;5039974;28;20032;-63
2023/04/30 07:59:49;;;;;;;0.20;0.20;;;;;;;21.66;56.19;99774.94;5039448;28;20383;-64
2023/04/30 08:02:17;;;;;;;0.20;0.20;;;;;;;22.08;55.27;99783.41;5038649;28;20061;-63
2023/04/30 08:04:45;;;;;;;0.20;0.20;;;;;;;21.89;55.20;99782.34;5039569;28;20075;-63
2023/04/30 08:07:17;;;;;;;0.20;0.20;;;;;;;22.10;54.15;99786.56;5057486;28;20025;-62
2023/04/30 08:09:45;;;;;;;0.20;0.20;;;;;;;21.97;53.52;99790.19;5038931;28;20041;-63
2023/04/30 08:12:10;;;;;;;0.20;0.20;;;;;;;22.12;54.55;99792.63;5039631;28;20029;-64
2023/04/30 08:14:38;;;;;;;0.20;0.20;;;;;;;22.13;54.65;99789.31;5038937;28;20059;-63
2023/04/30 08:17:07;;;;;;;0.20;0.20;;;;;;;22.39;53.84;99795.03;5039110;28;20061;-64
2023/04/30 08:19:33;;;;;;;0.10;0.10;;;;;;;22.45;51.42;99788.31;5039035;28;20052;-63
2023/04/30 08:22:00;;;;;;;0.20;0.20;;;;;;;22.37;51.85;99789.81;5039064;28;20427;-64
2023/04/30 08:24:26;;;;;;;0.20;0.20;;;;;;;22.43;52.09;99795.69;5038601;28;20473;-64
2023/04/30 08:26:51;;;;;;;0.20;0.20;;;;;;;22.20;52.84;99793.97;5038635;28;20036;-63
2023/04/30 08:29:17;;;;;;;0.20;0.20;;;;;;;22.83;51.45;99795.22;5038797;28;20036;-63
2023/04/30 08:31:43;;;;;;;0.13;0.13;;;;;;;22.98;50.47;99796.34;5038212;28;20028;-63
2023/04/30 08:34:08;;;;;;;0.20;0.20;;;;;;;23.19;48.89;99806.97;5038443;28;20040;-64
2023/04/30 08:36:39;;;;;;;0.20;0.20;;;;;;;23.39;49.63;99805.88;5038727;28;20040;-65
2023/04/30 08:39:06;;;;;;;0.20;0.20;;;;;;;23.21;51.18;99809.34;5037944;28;20029;-64
2023/04/30 08:41:35;;;;;;;0.10;0.10;;;;;;;23.63;49.82;99801.38;5038036;28;20120;-64
2023/04/30 08:44:02;;;;;;;0.20;0.20;;;;;;;23.66;48.25;99811.03;5056161;28;20059;-63
2023/04/30 08:46:30;;;;;;;0.17;0.17;;;;;;;23.52;48.70;99801.72;5038415;28;20025;-63
2023/04/30 08:49:02;;;;;;;0.20;0.20;;;;;;;23.37;49.50;99806.31;5037982;28;20039;-64
2023/04/30 08:51:31;;;;;;;0.20;0.20;;;;;;;23.33;50.35;99811.34;5038391;28;20111;-64
2023/04/30 08:53:59;;;;;;;0.20;0.20;;;;;;;23.33;49.29;99810.53;5037765;28;20044;-64
2023/04/30 08:56:25;;;;;;;0.10;0.10;;;;;;;23.22;49.85;99810.91;5037923;28;20029;-64
2023/04/30 08:58:53;;;;;;;0.10;0.10;;;;;;;22.99;50.11;99804.38;5038370;28;20500;-64
2023/04/30 09:01:19;;;;;;;0.10;0.10;;;;;;;23.02;50.71;99807.59;5037224;28;20044;-63
2023/04/30 09:03:47;;;;;;;0.17;0.17;;;;;;;23.38;49.37;99807.91;5037216;28;20040;-63
2023/04/30 09:06:16;;;;;;;0.10;0.10;;;;;;;23.64;47.81;99807.84;5037107;28;20063;-63
2023/04/30 09:08:46;;;;;;;0.20;0.20;;;;;;;23.42;48.60;99810.63;5037950;28;20384;-64
2023/04/30 09:11:25;;;;;;;0.10;0.10;;;;;;;23.78;47.28;99795.94;5036792;28;20116;-64
2023/04/30 09:13:53;;;;;;;0.10;0.10;;;;;;;24.80;45.08;99800.91;5036839;28;20033;-64
2023/04/30 09:16:20;;;;;;;0.10;0.10;;;;;;;24.88;44.35;99810.72;5036786;28;20036;-65
2023/04/30 09:18:46;;;;;;;0.20;0.20;;;;;;;24.97;43.66;99804.25;5036917;28;20048;-63
2023/04/30 09:21:12;;;;;;;0.20;0.20;;;;;;;25.27;42.68;99802.59;5037146;28;20179;-64
2023/04/30 09:23:53;;;;;;;0.15;0.15;;;;;;;25.50;41.10;99799.13;5037523;28;20063;-64
2023/04/30 09:26:30;;;;;;;0.20;0.20;;;;;;;25.37;42.04;99804.19;5055203;28;20030;-63
2023/04/30 09:28:57;;;;;;;0.17;0.17;;;;;;;24.38;43.89;99806.25;5037032;28;20033;-64
2023/04/30 09:31:26;;;;;;;0.15;0.15;;;;;;;24.44;44.27;99795.88;5037772;28;20032;-64
2023/04/30 09:33:52;;;;;;;0.15;0.15;;;;;;;25.53;43.12;99801.03;5037188;28;20491;-64
2023/04/30 09:36:22;;;;;;;0.10;0.10;;;;;;;25.53;42.54;99806.72;5055289;28;20025;-63
2023/04/30 09:38:48;;;;;;;0.10;0.10;;;;;;;25.46;42.74;99800.53;5037348;28;20037;-62
2023/04/30 09:41:27;;;;;;;0.20;0.20;;;;;;;25.07;43.92;99803.81;5037611;28;20383;-63
2023/04/30 09:43:58;;;;;;;0.20;0.20;;;;;;;24.78;44.96;99794.91;5037335;28;20467;-63
2023/04/30 09:46:31;;;;;;;0.10;0.10;;;;;;;24.78;44.45;99786.34;5037477;28;20036;-63
2023/04/30 09:49:02;;;;;;;0.10;0.10;;;;;;;25.43;43.83;99785.19;5037774;28;20033;-63
2023/04/30 09:51:31;;;;;;;0.20;0.20;;;;;;;25.68;42.87;99794.69;5037703;28;20048;-65
2023/04/30 09:54:03;;;;;;;0.20;0.20;;;;;;;25.46;44.37;99777.75;5055353;28;20056;-63
2023/04/30 09:56:38;;;;;;;0.20;0.20;;;;;;;25.46;44.17;99778.56;5054982;28;20029;-63
2023/04/30 09:59:08;;;;;;;0.20;0.20;;;;;;;25.44;44.73;99769.69;5037804;28;20368;-64
2023/04/30 10:01:37;;;;;;;0.20;0.20;;;;;;;25.38;43.78;99771.59;5036835;28;20479;-65
2023/04/30 10:04:04;;;;;;;0.20;0.20;;;;;;;25.02;43.92;99766.63;5036688;28;20033;-64
2023/04/30 10:06:34;;;;;;;0.10;0.10;;;;;;;24.80;44.56;99770.38;5054342;28;20031;-62
2023/04/30 10:09:04;;;;;;;0.20;0.20;;;;;;;24.33;45.46;99761.34;5036422;28;20068;-62
2023/04/30 10:11:34;;;;;;;0.10;0.10;;;;;;;24.52;45.29;99769.53;5036856;28;20059;-62
2023/04/30 10:14:07;;;;;;;0.10;0.10;;;;;;;24.25;46.43;99772.22;5036190;28;20033;-63
2023/04/30 10:16:48;;;;;;;0.10;0.10;;;;;;;24.28;45.34;99765.59;5035886;28;20021;-64
2023/04/30 10:19:18;;;;;;;0.20;0.20;;;;;;;23.81;45.91;99762.97;5036953;28;20059;-63
2023/04/30 10:21:47;;;;;;;0.20;0.20;;;;;;;23.55;46.23;99759.47;5036238;28;20028;-62
2023/04/30 10:24:13;;;;;;;0.20;0.20;;;;;;;23.26;46.94;99763.34;5036683;28;20059;-64
2023/04/30 10:26:42;;;;;;;0.20;0.20;;;;;;;23.33;47.76;99765.94;5036206;28;20079;-63
2023/04/30 10:29:09;;;;;;;0.20;0.20;;;;;;;23.16;47.47;99778.69;5019963;28;20029;-62
2023/04/30 10:31:36;;;;;;;0.20;0.20;;;;;;;22.67;49.88;99770.63;5054553;28;20498;-63
2023/04/30 10:34:39;;;;;;;0.10;0.10;;;;;;;23.05;49.48;99767.72;5036339;28;20087;-64
2023/04/30 10:37:21;;;;;;;0.20;0.20;;;;;;;22.99;50.13;99776.03;5036808;28;20025;-62
2023/04/30 10:39:49;;;;;;;0.10;0.10;;;;;;;22.72;50.20;99767.22;5036055;28;20033;-63
2023/04/30 10:42:14;;;;;;;0.20;0.20;;;;;;;22.64;50.80;99760.19;5035985;28;20032;-63
2023/04/30 10:44:43;;;;;;;0.20;0.20;;;;;;;22.42;52.63;99765.75;5035922;28;20032;-63
2023/04/30 10:47:09;;;;;;;0.20;0.20;;;;;;;22.33;52.46;99766.44;5035888;28;20037;-62
2023/04/30 10:49:35;;;;;;;0.10;0.10;;;;;;;22.41;52.99;99762.13;5036177;28;20090;-63
2023/04/30 10:52:04;;;;;;;0.10;0.10;;;;;;;22.42;52.63;99766.53;5019360;28;20124;-62
2023/04/30 10:54:31;;;;;;;0.10;0.10;;;;;;;22.38;52.41;99768.72;5035458;28;20041;-63
2023/04/30 10:57:13;;;;;;;0.20;0.20;;;;;;;22.18;53.35;99766.09;5035661;28;20144;-64
2023/04/30 11:00:06;;;;;;;0.20;0.20;;;;;;;22.27;53.23;99745.59;5035997;28;20460;-68
2023/04/30 11:02:40;;;;;;;0.20;0.20;;;;;;;22.20;53.70;99771.31;5036169;28;20059;-62
2023/04/30 11:05:08;;;;;;;0.20;0.20;;;;;;;22.22;54.20;99771.66;5035986;28;20071;-64
2023/04/30 11:07:57;;;;;;;0.20;0.20;;;;;;;21.81;54.69;99761.94;5036340;28;20439;-62
2023/04/30 11:10:31;;;;;;;0.20;0.20;;;;;;;21.75;55.38;99760.91;5035903;28;20021;-63
2023/04/30 11:13:02;;;;;;;0.20;0.20;;;;;;;21.54;55.45;99768.00;5053764;28;20108;-62
2023/04/30 11:15:35;;;;;;;0.20;0.20;;;;;;;21.56;55.78;99770.38;5053260;28;20029;-62
2023/04/30 11:18:03;;;;;;;0.20;0.20;;;;;;;21.64;56.27;99763.25;5035365;28;20032;-64
2023/04/30 11:20:31;;;;;;;0.20;0.20;;;;;;;21.79;55.67;99757.97;5036038;28;20025;-63
2023/04/30 11:23:15;;;;;;;0.20;0.20;;;;;;;21.62;56.04;99760.06;5035601;28;20059;-63
2023/04/30 11:25:46;;;;;;;0.20;0.20;;;;;;;21.74;55.91;99762.16;5035556;28;20028;-63
2023/04/30 11:28:16;;;;;;;0.20;0.20;;;;;;;21.66;55.36;99750.25;5036405;28;20422;-62
2023/04/30 11:30:57;;;;;;;0.10;0.10;;;;;;;21.73;55.51;99757.72;5035640;28;20033;-63
2023/04/30 11:33:26;;;;;;;0.20;0.20;;;;;;;21.64;55.78;99757.59;5036148;28;20036;-62
2023/04/30 11:35:56;;;;;;;0.20;0.20;;;;;;;21.43;56.50;99754.13;5035830;28;20455;-62
2023/04/30 11:38:28;;;;;;;0.20;0.20;;;;;;;21.52;56.27;99749.84;5035462;28;20119;-64
2023/04/30 11:40:57;;;;;;;0.13;0.13;;;;;;;21.39;56.55;99753.44;5035727;28;20447;-63